createdAt,value
2018-07-13T00:01:03.565Z,7.50
2018-07-13T00:03:33.622Z,7.60
2018-07-13T00:06:02.201Z,7.40
2018-07-13T00:08:30.813Z,6.60
2018-07-13T00:10:59.410Z,6.70
2018-07-13T00:13:28.259Z,6.07
2018-07-13T00:16:03.301Z,6.40
2018-07-13T00:18:32.264Z,6.47
2018-07-13T00:21:00.923Z,6.80
2018-07-13T00:23:29.533Z,6.50
2018-07-13T00:25:58.118Z,6.40
2018-07-13T00:28:26.704Z,6.27
2018-07-13T00:30:55.378Z,6.63
2018-07-13T00:33:23.923Z,6.20
2018-07-13T00:35:52.464Z,6.63
2018-07-13T00:38:21.114Z,6.33
2018-07-13T00:40:50.100Z,6.27
2018-07-13T00:43:18.695Z,6.10
2018-07-13T00:45:47.296Z,5.80
2018-07-13T00:48:16.802Z,6.43
2018-07-13T00:50:45.371Z,6.47
2018-07-13T00:53:13.969Z,5.97
2018-07-13T00:55:42.556Z,6.50
2018-07-13T00:58:11.172Z,5.97
2018-07-13T01:00:40.717Z,5.87
2018-07-13T01:03:10.396Z,6.00
2018-07-13T01:05:39.144Z,6.07
2018-07-13T01:08:07.738Z,6.53
2018-07-13T01:10:37.123Z,6.23
2018-07-13T01:13:05.793Z,6.47
2018-07-13T01:15:34.418Z,6.23
2018-07-13T01:18:03.084Z,6.30
2018-07-13T01:20:35.009Z,6.47
2018-07-13T01:23:04.426Z,6.87
2018-07-13T01:25:33.173Z,6.90
2018-07-13T01:28:01.742Z,6.07
2018-07-13T01:30:31.073Z,7.07
2018-07-13T01:32:59.635Z,6.80
2018-07-13T01:35:28.352Z,6.60
2018-07-13T01:37:57.489Z,7.20
2018-07-13T01:40:26.276Z,6.90
2018-07-13T01:42:54.912Z,7.10
2018-07-13T01:45:23.549Z,7.93
2018-07-13T01:47:52.190Z,8.83
2018-07-13T01:50:20.759Z,7.60
2018-07-13T01:52:49.352Z,7.90
2018-07-13T01:55:17.986Z,8.00
2018-07-13T01:57:46.567Z,8.47
2018-07-13T02:00:15.184Z,8.80
2018-07-13T02:02:43.839Z,8.20
2018-07-13T02:05:12.458Z,7.70
2018-07-13T02:07:43.918Z,8.40
2018-07-13T02:10:12.488Z,7.77
2018-07-13T02:12:41.059Z,8.93
2018-07-13T02:15:09.720Z,9.13
2018-07-13T02:17:38.446Z,7.90
2018-07-13T02:20:07.119Z,8.07
2018-07-13T02:22:35.721Z,8.13
2018-07-13T02:25:04.466Z,8.33
2018-07-13T02:27:33.063Z,9.03
2018-07-13T02:30:01.688Z,8.90
2018-07-13T02:32:30.359Z,7.63
2018-07-13T02:34:59.016Z,8.10
2018-07-13T02:37:34.165Z,8.43
2018-07-13T02:40:02.828Z,7.87
2018-07-13T02:42:31.804Z,8.57
2018-07-13T02:45:00.413Z,8.17
2018-07-13T02:47:29.062Z,8.30
2018-07-13T02:49:57.671Z,7.30
2018-07-13T02:52:26.278Z,7.90
2018-07-13T02:54:54.985Z,8.67
2018-07-13T02:57:23.837Z,9.30
2018-07-13T02:59:52.421Z,9.07
2018-07-13T03:02:21.066Z,7.20
2018-07-13T03:04:50.146Z,7.40
2018-07-13T03:07:18.777Z,7.23
2018-07-13T03:09:47.427Z,7.90
2018-07-13T03:12:16.068Z,8.00
2018-07-13T03:14:45.488Z,7.83
2018-07-13T03:17:14.482Z,8.30
2018-07-13T03:19:43.120Z,8.20
2018-07-13T03:22:11.828Z,7.70
2018-07-13T03:24:40.518Z,7.30
2018-07-13T03:27:09.238Z,7.50
2018-07-13T03:29:38.231Z,6.97
2018-07-13T03:32:06.831Z,7.37
2018-07-13T03:34:35.887Z,7.27
2018-07-13T03:37:04.550Z,6.90
2018-07-13T03:39:33.422Z,7.00
2018-07-13T03:42:02.098Z,7.47
2018-07-13T03:44:30.740Z,7.27
2018-07-13T03:46:59.348Z,8.00
2018-07-13T03:49:27.936Z,8.30
2018-07-13T03:51:57.060Z,8.20
2018-07-13T03:54:25.717Z,7.93
2018-07-13T03:56:54.312Z,7.00
2018-07-13T03:59:22.963Z,8.27
2018-07-13T04:01:51.539Z,7.07
2018-07-13T04:04:20.467Z,7.90
2018-07-13T04:06:49.406Z,7.90
2018-07-13T04:09:18.103Z,7.87
2018-07-13T04:11:46.730Z,8.50
2018-07-13T04:14:16.230Z,8.27
2018-07-13T04:16:44.822Z,8.57
2018-07-13T04:19:13.544Z,7.80
2018-07-13T04:21:42.213Z,9.17
2018-07-13T04:24:11.582Z,8.50
2018-07-13T04:26:41.099Z,8.90
2018-07-13T04:29:09.894Z,8.87
2018-07-13T04:31:38.558Z,8.83
2018-07-13T04:34:07.215Z,8.83
2018-07-13T04:36:35.797Z,9.20
2018-07-13T04:39:05.434Z,9.03
2018-07-13T04:41:34.154Z,8.97
2018-07-13T04:44:02.956Z,8.80
2018-07-13T04:46:31.597Z,9.10
2018-07-13T04:49:00.207Z,9.37
2018-07-13T04:51:28.904Z,9.80
2018-07-13T04:53:57.686Z,10.07
2018-07-13T04:56:26.616Z,9.13
2018-07-13T04:58:55.286Z,10.20
2018-07-13T05:01:24.194Z,9.67
2018-07-13T05:03:52.939Z,11.20
2018-07-13T05:06:21.843Z,10.13
2018-07-13T05:08:50.581Z,10.50
2018-07-13T05:11:19.680Z,9.33
2018-07-13T05:13:50.154Z,10.90
2018-07-13T05:16:19.209Z,10.87
2018-07-13T05:18:48.765Z,11.17
2018-07-13T05:21:17.962Z,11.83
2018-07-13T05:23:47.841Z,11.00
2018-07-13T05:26:16.505Z,10.27
2018-07-13T05:28:46.561Z,11.33
2018-07-13T05:31:16.375Z,10.77
2018-07-13T05:33:45.060Z,11.50
2018-07-13T05:36:14.577Z,10.43
2018-07-13T05:38:43.337Z,11.07
2018-07-13T05:41:12.727Z,10.87
2018-07-13T05:43:42.629Z,11.10
2018-07-13T05:46:12.890Z,10.97
2018-07-13T05:48:41.890Z,11.80
2018-07-13T05:51:11.432Z,11.67
2018-07-13T05:53:40.899Z,12.53
2018-07-13T05:56:10.584Z,12.80
2018-07-13T05:58:39.264Z,12.10
2018-07-13T06:01:08.016Z,11.43
2018-07-13T06:03:36.839Z,12.00
2018-07-13T06:06:06.035Z,11.53
2018-07-13T06:08:34.678Z,11.70
2018-07-13T06:11:03.372Z,12.30
2018-07-13T06:13:31.981Z,11.70
2018-07-13T06:16:01.175Z,11.20
2018-07-13T06:18:29.869Z,11.73
2018-07-13T06:20:58.499Z,10.93
2018-07-13T06:23:27.159Z,12.17
2018-07-13T06:25:55.779Z,11.57
2018-07-13T06:28:24.459Z,11.53
2018-07-13T06:30:53.126Z,10.57
2018-07-13T06:33:21.717Z,12.10
2018-07-13T06:35:51.557Z,12.43
2018-07-13T06:38:20.194Z,11.30
2018-07-13T06:40:50.140Z,12.43
2018-07-13T06:43:18.768Z,12.27
2018-07-13T06:45:47.405Z,11.40
2018-07-13T06:48:16.060Z,11.37
2018-07-13T06:50:44.701Z,12.27
2018-07-13T06:53:15.710Z,11.23
2018-07-13T06:55:44.696Z,11.70
2018-07-13T06:58:24.616Z,10.53
2018-07-13T07:00:55.923Z,10.90
2018-07-13T07:03:25.804Z,10.80
2018-07-13T07:05:55.861Z,9.43
2018-07-13T07:08:25.294Z,9.33
2018-07-13T07:10:55.260Z,9.73
2018-07-13T07:13:31.633Z,10.57
2018-07-13T07:16:01.429Z,9.77
2018-07-13T07:18:30.936Z,9.63
2018-07-13T07:20:59.872Z,11.00
2018-07-13T07:23:29.461Z,10.73
2018-07-13T07:26:00.348Z,10.27
2018-07-13T07:28:29.829Z,9.60
2018-07-13T07:30:59.981Z,9.63
2018-07-13T07:33:29.647Z,9.73
2018-07-13T07:35:58.261Z,10.77
2018-07-13T07:38:27.632Z,11.13
2018-07-13T07:40:56.378Z,9.37
2018-07-13T07:43:25.016Z,9.20
2018-07-13T07:45:53.650Z,9.80
2018-07-13T07:48:22.296Z,9.50
2018-07-13T07:50:50.893Z,9.50
2018-07-13T07:53:19.546Z,8.70
2018-07-13T07:55:48.147Z,8.00
2018-07-13T07:58:16.784Z,6.93
2018-07-13T08:00:45.420Z,6.90
2018-07-13T08:03:14.169Z,8.00
2018-07-13T08:05:42.705Z,7.37
2018-07-13T08:08:11.334Z,6.77
2018-07-13T08:10:39.943Z,6.70
2018-07-13T08:13:08.559Z,6.43
2018-07-13T08:15:38.202Z,7.00
2018-07-13T08:18:06.944Z,6.00
2018-07-13T08:20:37.941Z,6.27
2018-07-13T08:23:08.303Z,6.50
2018-07-13T08:25:37.961Z,7.43
2018-07-13T08:28:08.051Z,7.20
2018-07-13T08:30:52.100Z,5.60
2018-07-13T08:33:20.965Z,5.77
2018-07-13T08:35:50.607Z,6.23
2018-07-13T08:38:19.209Z,5.63
2018-07-13T08:40:48.146Z,6.23
2018-07-13T08:43:17.036Z,5.53
2018-07-13T08:45:46.527Z,5.30
2018-07-13T08:48:15.206Z,4.67
2018-07-13T08:50:44.786Z,5.30
2018-07-13T08:53:13.618Z,4.60
2018-07-13T08:55:42.376Z,5.23
2018-07-13T08:58:11.085Z,4.70
2018-07-13T09:00:40.087Z,5.30
2018-07-13T09:03:08.701Z,5.10
2018-07-13T09:05:37.471Z,4.83
2018-07-13T09:08:07.245Z,4.90
2018-07-13T09:10:35.924Z,5.13
2018-07-13T09:13:05.887Z,5.03
2018-07-13T09:15:34.566Z,5.00
2018-07-13T09:18:07.035Z,4.70
2018-07-13T09:20:35.971Z,4.60
2018-07-13T09:23:04.636Z,4.50
2018-07-13T09:25:33.268Z,4.70
2018-07-13T09:28:01.987Z,5.23
2018-07-13T09:30:30.674Z,5.77
2018-07-13T09:33:00.453Z,4.57
2018-07-13T09:35:30.304Z,5.07
2018-07-13T09:37:59.643Z,5.53
2018-07-13T09:40:28.508Z,4.67
2018-07-13T09:42:58.211Z,4.60
2018-07-13T09:45:26.873Z,4.50
2018-07-13T09:47:55.546Z,4.10
2018-07-13T09:50:24.252Z,4.77
2018-07-13T09:52:52.887Z,3.70
2018-07-13T09:55:21.552Z,4.27
2018-07-13T09:57:50.832Z,3.97
2018-07-13T10:00:19.565Z,3.90
2018-07-13T10:02:48.206Z,3.80
2018-07-13T10:05:17.020Z,3.17
2018-07-13T10:07:45.663Z,3.50
2018-07-13T10:10:15.089Z,4.00
2018-07-13T10:12:43.804Z,3.97
2018-07-13T10:15:13.112Z,4.10
2018-07-13T10:17:41.982Z,4.20
2018-07-13T10:20:10.841Z,5.03
2018-07-13T10:22:40.403Z,4.70
2018-07-13T10:25:09.140Z,4.00
2018-07-13T10:27:38.860Z,4.43
2018-07-13T10:30:10.682Z,4.27
2018-07-13T10:32:39.407Z,3.97
2018-07-13T10:35:08.676Z,3.87
2018-07-13T10:37:37.384Z,3.87
2018-07-13T10:40:05.955Z,4.30
2018-07-13T10:42:34.605Z,3.90
2018-07-13T10:45:03.487Z,3.87
2018-07-13T10:47:32.324Z,4.93
2018-07-13T10:50:00.921Z,3.60
2018-07-13T10:52:29.535Z,3.63
2018-07-13T10:54:58.979Z,3.40
2018-07-13T10:57:27.617Z,4.10
2018-07-13T10:59:56.232Z,3.90
2018-07-13T11:02:24.922Z,3.87
2018-07-13T11:04:53.647Z,3.60
2018-07-13T11:07:22.329Z,3.70
2018-07-13T11:09:51.961Z,3.50
2018-07-13T11:12:20.929Z,4.07
2018-07-13T11:14:49.616Z,4.17
2018-07-13T11:17:18.387Z,3.67
2018-07-13T11:19:47.033Z,4.13
2018-07-13T11:22:15.755Z,4.27
2018-07-13T11:24:44.407Z,3.63
2018-07-13T11:27:12.970Z,3.70
2018-07-13T11:29:41.714Z,3.90
2018-07-13T11:32:10.335Z,4.10
2018-07-13T11:34:39.019Z,4.60
2018-07-13T11:37:08.371Z,4.20
2018-07-13T11:39:36.912Z,4.23
2018-07-13T11:42:05.583Z,4.20
2018-07-13T11:44:34.283Z,11.00
2018-07-13T11:47:02.923Z,10.40
2018-07-13T11:49:31.553Z,4.03
2018-07-13T11:52:00.155Z,4.43
2018-07-13T11:54:28.772Z,4.53
2018-07-13T11:56:57.401Z,3.93
2018-07-13T11:59:26.199Z,4.40
2018-07-13T12:01:54.944Z,4.10
2018-07-13T12:04:23.578Z,4.63
2018-07-13T12:06:52.950Z,4.10
2018-07-13T12:09:21.584Z,4.10
2018-07-13T12:11:50.290Z,5.20
2018-07-13T12:14:19.065Z,3.83
2018-07-13T12:16:47.947Z,4.10
2018-07-13T12:19:16.614Z,3.90
2018-07-13T12:21:45.227Z,6.27
2018-07-13T12:24:13.899Z,4.03
2018-07-13T12:26:42.523Z,4.70
2018-07-13T12:29:11.125Z,4.37
2018-07-13T12:31:39.746Z,4.10
2018-07-13T12:34:08.364Z,4.23
2018-07-13T12:36:37.004Z,4.10
2018-07-13T12:39:06.202Z,3.20
2018-07-13T12:41:34.855Z,3.70
2018-07-13T12:44:03.517Z,5.40
2018-07-13T12:46:32.242Z,4.77
2018-07-13T12:49:00.879Z,4.40
2018-07-13T12:51:29.512Z,4.60
2018-07-13T12:53:58.905Z,4.97
2018-07-13T12:56:28.345Z,4.90
2018-07-13T12:58:57.025Z,4.30
2018-07-13T13:01:25.727Z,3.70
2018-07-13T13:03:54.350Z,3.90
2018-07-13T13:06:22.994Z,4.10
2018-07-13T13:08:51.667Z,3.80
2018-07-13T13:11:20.451Z,3.77
2018-07-13T13:13:49.150Z,4.30
2018-07-13T13:16:18.451Z,3.20
2018-07-13T13:18:47.416Z,3.87
2018-07-13T13:21:16.085Z,3.70
2018-07-13T13:23:45.222Z,3.40
2018-07-13T13:26:14.202Z,3.43
2018-07-13T13:28:43.401Z,3.17
2018-07-13T13:31:12.031Z,3.27
2018-07-13T13:33:40.656Z,4.40
2018-07-13T13:36:09.261Z,3.37
2018-07-13T13:38:37.881Z,3.33
2018-07-13T13:41:06.538Z,3.30
2018-07-13T13:43:35.540Z,3.83
2018-07-13T13:46:04.189Z,3.10
2018-07-13T13:48:33.358Z,3.10
2018-07-13T13:51:01.943Z,3.50
2018-07-13T13:53:30.545Z,3.80
2018-07-13T13:55:59.236Z,3.10
2018-07-13T13:58:27.902Z,2.93
2018-07-13T14:00:56.587Z,3.10
2018-07-13T14:03:25.399Z,2.90
2018-07-13T14:05:54.016Z,2.90
2018-07-13T14:08:22.620Z,3.27
2018-07-13T14:10:51.754Z,3.27
2018-07-13T14:13:20.447Z,3.40
2018-07-13T14:15:49.217Z,2.90
2018-07-13T14:18:17.842Z,2.80
2018-07-13T14:20:46.470Z,2.53
2018-07-13T14:23:15.104Z,2.87
2018-07-13T14:25:43.761Z,3.70
2018-07-13T14:28:12.349Z,3.00
2018-07-13T14:30:41.026Z,2.83
2018-07-13T14:33:09.618Z,3.37
2018-07-13T14:35:38.359Z,3.40
2018-07-13T14:38:06.926Z,3.23
2018-07-13T14:40:35.583Z,3.00
2018-07-13T14:43:04.231Z,3.23
2018-07-13T14:45:32.826Z,3.10
2018-07-13T14:48:01.488Z,4.67
2018-07-13T14:50:30.114Z,3.17
2018-07-13T14:52:58.707Z,3.10
2018-07-13T14:55:27.344Z,2.80
2018-07-13T14:57:56.265Z,2.67
2018-07-13T15:00:24.878Z,2.90
2018-07-13T15:02:53.511Z,3.03
2018-07-13T15:05:22.109Z,2.90
2018-07-13T15:07:50.734Z,2.87
2018-07-13T15:10:19.496Z,3.07
2018-07-13T15:12:48.077Z,3.50
2018-07-13T15:15:16.872Z,3.60
2018-07-13T15:17:45.718Z,4.97
2018-07-13T15:20:14.353Z,4.33
2018-07-13T15:22:43.054Z,5.00
2018-07-13T15:25:11.668Z,3.50
2018-07-13T15:27:40.285Z,3.90
2018-07-13T15:30:08.947Z,4.20
2018-07-13T15:32:37.560Z,3.40
2018-07-13T15:35:06.401Z,3.40
2018-07-13T15:37:35.104Z,3.30
2018-07-13T15:40:03.871Z,3.33
2018-07-13T15:42:32.565Z,2.90
2018-07-13T15:45:01.140Z,3.20
2018-07-13T15:47:30.255Z,3.20
2018-07-13T15:49:58.966Z,2.97
2018-07-13T15:52:27.548Z,2.90
2018-07-13T15:54:56.089Z,3.40
2018-07-13T15:57:24.701Z,3.13
2018-07-13T15:59:53.393Z,3.50
2018-07-13T16:02:22.028Z,3.37
2018-07-13T16:04:50.611Z,3.30
2018-07-13T16:07:19.289Z,3.73
2018-07-13T16:09:47.974Z,3.60
2018-07-13T16:12:16.906Z,3.40
2018-07-13T16:14:45.633Z,4.23
2018-07-13T16:17:14.398Z,3.47
2018-07-13T16:19:43.165Z,3.40
2018-07-13T16:22:11.902Z,3.40
2018-07-13T16:24:40.583Z,3.43
2018-07-13T16:27:10.027Z,3.50
2018-07-13T16:29:38.702Z,4.13
2018-07-13T16:32:07.319Z,4.03
2018-07-13T16:34:36.013Z,4.20
2018-07-13T16:37:04.777Z,4.00
2018-07-13T16:39:34.763Z,4.27
2018-07-13T16:42:03.384Z,3.90
2018-07-13T16:44:32.047Z,3.33
2018-07-13T16:47:00.639Z,3.87
2018-07-13T16:49:29.249Z,3.67
2018-07-13T16:51:57.865Z,3.80
2018-07-13T16:54:26.547Z,3.40
2018-07-13T16:56:55.132Z,3.90
2018-07-13T16:59:23.725Z,3.50
2018-07-13T17:01:53.231Z,3.90
2018-07-13T17:04:21.849Z,4.60
2018-07-13T17:06:50.608Z,4.00
2018-07-13T17:09:19.227Z,4.27
2018-07-13T17:11:48.325Z,5.13
2018-07-13T17:14:16.878Z,4.40
2018-07-13T17:16:45.516Z,4.63
2018-07-13T17:19:14.160Z,4.70
2018-07-13T17:21:43.110Z,4.50
2018-07-13T17:24:11.763Z,4.40
2018-07-13T17:26:40.397Z,4.30
2018-07-13T17:29:09.506Z,4.40
2018-07-13T17:31:38.190Z,4.43
2018-07-13T17:34:07.074Z,4.40
2018-07-13T17:36:35.670Z,4.10
2018-07-13T17:39:05.019Z,4.60
2018-07-13T17:41:33.660Z,4.50
2018-07-13T17:44:02.286Z,4.47
2018-07-13T17:46:31.733Z,4.50
2018-07-13T17:49:00.462Z,4.37
2018-07-13T17:51:29.066Z,4.20
2018-07-13T17:53:57.820Z,4.23
2018-07-13T17:56:26.465Z,4.70
2018-07-13T17:58:55.177Z,4.60
2018-07-13T18:01:23.914Z,4.53
2018-07-13T18:03:52.604Z,4.30
2018-07-13T18:06:21.244Z,5.10
2018-07-13T18:08:50.203Z,4.53
2018-07-13T18:11:18.828Z,4.53
2018-07-13T18:13:47.469Z,4.30
2018-07-13T18:16:16.705Z,4.57
2018-07-13T18:18:45.603Z,4.70
2018-07-13T18:21:14.352Z,4.10
2018-07-13T18:23:43.097Z,4.43
2018-07-13T18:26:11.958Z,4.10
2018-07-13T18:28:40.752Z,4.10
2018-07-13T18:31:09.517Z,4.90
2018-07-13T18:33:38.216Z,4.40
2018-07-13T18:36:06.990Z,4.70
2018-07-13T18:38:35.738Z,4.70
2018-07-13T18:41:04.702Z,5.23
2018-07-13T18:43:33.473Z,4.63
2018-07-13T18:46:02.234Z,4.83
2018-07-13T18:48:30.913Z,4.70
2018-07-13T18:51:00.768Z,5.17
2018-07-13T18:53:29.584Z,4.63
2018-07-13T18:55:59.706Z,5.07
2018-07-13T18:58:28.585Z,5.07
2018-07-13T19:00:57.409Z,4.97
2018-07-13T19:03:26.081Z,4.53
2018-07-13T19:05:54.844Z,4.70
2018-07-13T19:08:23.542Z,4.83
2018-07-13T19:10:52.503Z,4.50
2018-07-13T19:13:21.219Z,4.80
2018-07-13T19:15:49.922Z,5.00
2018-07-13T19:18:19.699Z,4.93
2018-07-13T19:20:48.387Z,4.80
2018-07-13T19:23:17.795Z,5.03
2018-07-13T19:25:46.572Z,4.50
2018-07-13T19:28:15.338Z,5.00
2018-07-13T19:30:44.559Z,5.80
2018-07-13T19:33:13.281Z,6.40
2018-07-13T19:35:41.990Z,5.60
2018-07-13T19:38:10.744Z,6.43
2018-07-13T19:40:39.821Z,10.70
2018-07-13T19:43:09.205Z,11.30
2018-07-13T19:45:38.015Z,7.17
2018-07-13T19:48:07.172Z,6.30
2018-07-13T19:50:36.086Z,7.50
2018-07-13T19:53:04.878Z,6.33
2018-07-13T19:55:34.141Z,6.13
2018-07-13T19:58:04.383Z,6.07
2018-07-13T20:00:33.942Z,6.00
2018-07-13T20:03:06.350Z,6.30
2018-07-13T20:05:35.078Z,6.13
2018-07-13T20:08:04.413Z,5.20
2018-07-13T20:10:33.099Z,6.13
2018-07-13T20:13:01.889Z,5.77
2018-07-13T20:15:30.671Z,6.93
2018-07-13T20:18:00.548Z,6.67
2018-07-13T20:20:29.349Z,6.70
2018-07-13T20:22:58.051Z,6.00
2018-07-13T20:25:26.903Z,6.40
2018-07-13T20:27:56.850Z,5.77
2018-07-13T20:30:25.926Z,6.40
2018-07-13T20:32:54.671Z,6.50
2018-07-13T20:35:23.461Z,6.07
2018-07-13T20:37:52.170Z,6.70
2018-07-13T20:40:20.883Z,6.40
2018-07-13T20:42:49.660Z,6.83
2018-07-13T20:45:18.363Z,8.53
2018-07-13T20:47:47.490Z,7.40
2018-07-13T20:50:16.292Z,5.83
2018-07-13T20:52:45.798Z,6.40
2018-07-13T20:55:15.346Z,7.53
2018-07-13T20:57:44.377Z,7.00
2018-07-13T21:00:14.034Z,7.37
2018-07-13T21:02:42.723Z,6.70
2018-07-13T21:05:14.748Z,6.13
2018-07-13T21:07:43.980Z,6.50
2018-07-13T21:10:12.926Z,6.60
2018-07-13T21:12:41.705Z,6.60
2018-07-13T21:15:10.505Z,6.70
2018-07-13T21:17:40.243Z,6.30
2018-07-13T21:20:09.263Z,6.80
2018-07-13T21:22:37.853Z,6.50
2018-07-13T21:25:06.583Z,7.00
2018-07-13T21:27:35.548Z,7.87
2018-07-13T21:32:40.982Z,7.27
2018-07-13T21:35:09.728Z,8.30
2018-07-13T21:37:38.469Z,6.93
2018-07-13T21:40:07.127Z,7.70
2018-07-13T21:42:35.844Z,7.73
2018-07-13T21:45:05.461Z,7.40
2018-07-13T21:47:35.096Z,7.10
2018-07-13T21:50:03.937Z,7.10
2018-07-13T21:52:32.731Z,7.90
2018-07-13T21:55:01.457Z,6.83
2018-07-13T21:57:30.500Z,7.40
2018-07-13T21:59:59.253Z,7.63
2018-07-13T22:02:28.080Z,7.40
2018-07-13T22:04:56.784Z,7.10
2018-07-13T22:07:25.401Z,7.60
2018-07-13T22:09:54.032Z,7.77
2018-07-13T22:12:22.752Z,7.50
2018-07-13T22:14:51.413Z,7.37
2018-07-13T22:17:20.535Z,7.90
2018-07-13T22:19:49.224Z,7.47
2018-07-13T22:22:17.928Z,8.13
2018-07-13T22:24:46.740Z,7.70
2018-07-13T22:27:15.469Z,8.10
2018-07-13T22:29:44.683Z,7.93
2018-07-13T22:32:14.363Z,7.40
2018-07-13T22:34:43.044Z,7.50
2018-07-13T22:37:12.470Z,8.03
2018-07-13T22:39:41.177Z,8.37
2018-07-13T22:42:10.244Z,7.93
2018-07-13T22:44:38.933Z,8.13
2018-07-13T22:47:08.271Z,8.33
2018-07-13T22:49:36.887Z,7.30
2018-07-13T22:52:05.619Z,7.93
2018-07-13T22:54:34.298Z,7.70
2018-07-13T22:57:03.536Z,8.43
2018-07-13T22:59:32.321Z,8.00
2018-07-13T23:02:01.167Z,7.70
2018-07-13T23:04:30.544Z,8.00
2018-07-13T23:07:01.090Z,7.73
2018-07-13T23:09:30.736Z,8.27
2018-07-13T23:12:00.689Z,8.23
2018-07-13T23:14:31.222Z,8.73
2018-07-13T23:17:02.171Z,8.90
2018-07-13T23:19:32.298Z,7.63
2018-07-13T23:22:03.578Z,7.72
2018-07-13T23:24:32.838Z,8.10
2018-07-13T23:27:02.166Z,8.13
2018-07-13T23:29:31.641Z,8.47
2018-07-13T23:32:01.347Z,9.03
2018-07-13T23:34:30.112Z,8.90
2018-07-13T23:36:59.269Z,8.70
2018-07-13T23:39:29.054Z,8.20
2018-07-13T23:41:59.329Z,8.50
2018-07-13T23:44:28.119Z,8.57
2018-07-13T23:46:58.922Z,8.70
2018-07-13T23:49:28.780Z,8.60
2018-07-13T23:51:57.533Z,9.60
2018-07-13T23:54:26.391Z,13.07
2018-07-13T23:56:54.995Z,21.43
2018-07-13T23:59:24.305Z,22.83
